Yakutsk, Russia
Current Conditions -  °F | °C
As of 3:30 AM on Friday 24 Oct 2014 (Local Time) from UEEE Reporting Station
Clear Clear  
Wind Chill: -9°   Ceiling: Unl
Heat Index: -9°   Visibility: 6mi
Dew Point: -13°   Wind: 2mph
Humidity: 84%   Direction: 320°NW
Pressure: 29.71"   Gusts: NA
Location:  62.05°N, 129.73°E
Report Text: UEEE 231830Z 32001MPS CAVOK M23/M25 Q1006 NOSIG RMK QFE74623490150
Loading
Personal Weather Stations






























Interactive Weather Map
Tropical Storm Tracking
New forecast layout! Learn more

10-Day Weather Forecast

Advertisements
Track Severe Weather on mobile